sensor_id;sensor_type;location;lat;lon;timestamp;P1;durP1;ratioP1;P2;durP2;ratioP2
67712;SDS011;67640;55.784;49.138;2023-09-19T00:00:40;7.12;;;2.70;;
67712;SDS011;67640;55.784;49.138;2023-09-19T00:06:00;6.43;;;2.40;;
67712;SDS011;67640;55.784;49.138;2023-09-19T00:11:19;6.00;;;3.37;;
67712;SDS011;67640;55.784;49.138;2023-09-19T00:16:24;6.10;;;2.08;;
67712;SDS011;67640;55.784;49.138;2023-09-19T00:21:43;7.60;;;2.80;;
67712;SDS011;67640;55.784;49.138;2023-09-19T00:26:53;6.77;;;2.60;;
67712;SDS011;67640;55.784;49.138;2023-09-19T00:32:12;6.03;;;2.30;;
67712;SDS011;67640;55.784;49.138;2023-09-19T00:37:31;8.83;;;2.37;;
67712;SDS011;67640;55.784;49.138;2023-09-19T00:42:50;7.28;;;2.30;;
67712;SDS011;67640;55.784;49.138;2023-09-19T00:48:09;6.17;;;1.85;;
67712;SDS011;67640;55.784;49.138;2023-09-19T00:53:17;5.17;;;2.33;;
67712;SDS011;67640;55.784;49.138;2023-09-19T00:58:23;6.67;;;2.37;;
67712;SDS011;67640;55.784;49.138;2023-09-19T01:03:28;5.37;;;2.10;;
67712;SDS011;67640;55.784;49.138;2023-09-19T01:08:47;4.17;;;1.70;;
67712;SDS011;67640;55.784;49.138;2023-09-19T01:30:39;4.50;;;1.75;;
67712;SDS011;67640;55.784;49.138;2023-09-19T01:35:44;12.80;;;2.03;;
67712;SDS011;67640;55.784;49.138;2023-09-19T01:41:05;4.70;;;1.80;;
67712;SDS011;67640;55.784;49.138;2023-09-19T02:02:52;5.10;;;1.70;;
67712;SDS011;67640;55.784;49.138;2023-09-19T02:08:12;4.40;;;1.70;;
67712;SDS011;67640;55.784;49.138;2023-09-19T02:13:32;6.08;;;1.70;;
67712;SDS011;67640;55.784;49.138;2023-09-19T02:18:38;4.57;;;1.70;;
67712;SDS011;67640;55.784;49.138;2023-09-19T02:23:57;3.77;;;1.30;;
67712;SDS011;67640;55.784;49.138;2023-09-19T02:29:04;4.87;;;1.60;;
67712;SDS011;67640;55.784;49.138;2023-09-19T02:34:09;5.83;;;1.63;;
67712;SDS011;67640;55.784;49.138;2023-09-19T02:39:28;4.92;;;1.50;;
67712;SDS011;67640;55.784;49.138;2023-09-19T02:44:47;7.83;;;1.45;;
67712;SDS011;67640;55.784;49.138;2023-09-19T02:49:52;3.67;;;1.50;;
67712;SDS011;67640;55.784;49.138;2023-09-19T02:54:57;3.85;;;1.65;;
67712;SDS011;67640;55.784;49.138;2023-09-19T03:00:17;3.47;;;1.27;;
67712;SDS011;67640;55.784;49.138;2023-09-19T03:05:23;6.55;;;1.30;;
67712;SDS011;67640;55.784;49.138;2023-09-19T03:10:42;7.65;;;1.50;;
67712;SDS011;67640;55.784;49.138;2023-09-19T03:16:01;4.23;;;1.20;;
67712;SDS011;67640;55.784;49.138;2023-09-19T03:21:08;4.80;;;1.10;;
67712;SDS011;67640;55.784;49.138;2023-09-19T03:26:25;3.00;;;1.10;;
67712;SDS011;67640;55.784;49.138;2023-09-19T03:31:30;7.03;;;1.10;;
67712;SDS011;67640;55.784;49.138;2023-09-19T03:36:35;3.98;;;1.30;;
67712;SDS011;67640;55.784;49.138;2023-09-19T03:41:54;4.58;;;1.10;;
67712;SDS011;67640;55.784;49.138;2023-09-19T03:47:13;4.27;;;0.83;;
67712;SDS011;67640;55.784;49.138;2023-09-19T03:52:33;6.87;;;1.25;;
67712;SDS011;67640;55.784;49.138;2023-09-19T03:57:47;2.40;;;0.90;;
67712;SDS011;67640;55.784;49.138;2023-09-19T04:03:03;3.35;;;1.17;;
67712;SDS011;67640;55.784;49.138;2023-09-19T04:08:09;3.55;;;1.10;;
67712;SDS011;67640;55.784;49.138;2023-09-19T04:13:28;2.90;;;1.20;;
67712;SDS011;67640;55.784;49.138;2023-09-19T04:18:33;5.90;;;1.10;;
67712;SDS011;67640;55.784;49.138;2023-09-19T04:23:52;4.93;;;1.00;;
67712;SDS011;67640;55.784;49.138;2023-09-19T04:29:11;8.78;;;1.17;;
67712;SDS011;67640;55.784;49.138;2023-09-19T04:34:17;3.55;;;1.30;;
67712;SDS011;67640;55.784;49.138;2023-09-19T04:39:36;2.47;;;1.00;;
67712;SDS011;67640;55.784;49.138;2023-09-19T04:44:55;3.80;;;0.80;;
67712;SDS011;67640;55.784;49.138;2023-09-19T04:50:02;3.53;;;0.90;;
67712;SDS011;67640;55.784;49.138;2023-09-19T04:55:21;3.30;;;0.70;;
67712;SDS011;67640;55.784;49.138;2023-09-19T05:00:26;7.28;;;1.50;;
67712;SDS011;67640;55.784;49.138;2023-09-19T05:05:45;3.27;;;0.70;;
67712;SDS011;67640;55.784;49.138;2023-09-19T05:11:06;5.25;;;0.60;;
67712;SDS011;67640;55.784;49.138;2023-09-19T05:16:25;7.17;;;0.70;;
67712;SDS011;67640;55.784;49.138;2023-09-19T05:21:43;3.52;;;0.65;;
67712;SDS011;67640;55.784;49.138;2023-09-19T05:26:47;4.53;;;0.80;;
67712;SDS011;67640;55.784;49.138;2023-09-19T05:32:07;3.72;;;0.70;;
67712;SDS011;67640;55.784;49.138;2023-09-19T05:37:28;4.10;;;0.93;;
67712;SDS011;67640;55.784;49.138;2023-09-19T05:42:47;2.50;;;0.60;;
67712;SDS011;67640;55.784;49.138;2023-09-19T05:53:31;2.90;;;0.70;;
67712;SDS011;67640;55.784;49.138;2023-09-19T05:58:36;3.27;;;0.70;;
67712;SDS011;67640;55.784;49.138;2023-09-19T06:04:12;2.12;;;0.50;;
67712;SDS011;67640;55.784;49.138;2023-09-19T06:09:17;2.27;;;0.40;;
67712;SDS011;67640;55.784;49.138;2023-09-19T06:14:22;1.47;;;0.40;;
67712;SDS011;67640;55.784;49.138;2023-09-19T06:19:41;6.28;;;0.50;;
67712;SDS011;67640;55.784;49.138;2023-09-19T06:24:46;0.93;;;0.30;;
67712;SDS011;67640;55.784;49.138;2023-09-19T06:30:06;6.40;;;0.77;;
67712;SDS011;67640;55.784;49.138;2023-09-19T06:35:12;2.85;;;0.40;;
67712;SDS011;67640;55.784;49.138;2023-09-19T06:40:33;1.30;;;0.30;;
67712;SDS011;67640;55.784;49.138;2023-09-19T06:45:53;1.42;;;0.30;;
67712;SDS011;67640;55.784;49.138;2023-09-19T06:50:58;1.62;;;0.45;;
67712;SDS011;67640;55.784;49.138;2023-09-19T06:56:17;1.00;;;0.20;;
67712;SDS011;67640;55.784;49.138;2023-09-19T07:01:23;2.30;;;0.55;;
67712;SDS011;67640;55.784;49.138;2023-09-19T07:12:11;2.70;;;0.50;;
67712;SDS011;67640;55.784;49.138;2023-09-19T07:17:19;2.35;;;0.50;;
67712;SDS011;67640;55.784;49.138;2023-09-19T07:22:38;4.87;;;0.40;;
67712;SDS011;67640;55.784;49.138;2023-09-19T07:27:57;1.53;;;0.30;;
67712;SDS011;67640;55.784;49.138;2023-09-19T07:33:17;2.12;;;0.47;;
67712;SDS011;67640;55.784;49.138;2023-09-19T07:38:22;6.03;;;0.47;;
67712;SDS011;67640;55.784;49.138;2023-09-19T07:43:27;2.85;;;0.50;;
67712;SDS011;67640;55.784;49.138;2023-09-19T07:48:46;2.10;;;0.40;;
67712;SDS011;67640;55.784;49.138;2023-09-19T07:54:21;2.00;;;0.50;;
67712;SDS011;67640;55.784;49.138;2023-09-19T07:59:25;2.08;;;0.60;;
67712;SDS011;67640;55.784;49.138;2023-09-19T08:04:42;2.30;;;0.47;;
67712;SDS011;67640;55.784;49.138;2023-09-19T08:10:01;2.33;;;0.40;;
67712;SDS011;67640;55.784;49.138;2023-09-19T08:15:20;6.27;;;0.50;;
67712;SDS011;67640;55.784;49.138;2023-09-19T08:20:25;1.25;;;0.30;;
67712;SDS011;67640;55.784;49.138;2023-09-19T08:25:31;3.33;;;0.33;;
67712;SDS011;67640;55.784;49.138;2023-09-19T08:30:50;1.85;;;0.35;;
67712;SDS011;67640;55.784;49.138;2023-09-19T08:36:09;2.17;;;0.57;;
67712;SDS011;67640;55.784;49.138;2023-09-19T08:41:40;4.33;;;0.40;;
67712;SDS011;67640;55.784;49.138;2023-09-19T08:46:45;7.40;;;0.55;;
67712;SDS011;67640;55.784;49.138;2023-09-19T08:51:54;2.65;;;0.40;;
67712;SDS011;67640;55.784;49.138;2023-09-19T08:57:12;2.43;;;0.60;;
67712;SDS011;67640;55.784;49.138;2023-09-19T09:02:17;1.57;;;0.40;;
67712;SDS011;67640;55.784;49.138;2023-09-19T09:13:01;2.10;;;0.40;;
67712;SDS011;67640;55.784;49.138;2023-09-19T09:18:20;3.67;;;0.40;;
67712;SDS011;67640;55.784;49.138;2023-09-19T09:29:05;5.03;;;0.50;;
67712;SDS011;67640;55.784;49.138;2023-09-19T09:34:32;2.67;;;0.60;;
67712;SDS011;67640;55.784;49.138;2023-09-19T09:50:32;2.13;;;0.70;;
67712;SDS011;67640;55.784;49.138;2023-09-19T09:55:57;1.85;;;0.40;;
67712;SDS011;67640;55.784;49.138;2023-09-19T10:01:17;3.60;;;0.70;;
67712;SDS011;67640;55.784;49.138;2023-09-19T10:06:48;4.07;;;0.80;;
67712;SDS011;67640;55.784;49.138;2023-09-19T10:17:33;4.53;;;0.60;;
67712;SDS011;67640;55.784;49.138;2023-09-19T10:22:39;2.20;;;0.50;;
67712;SDS011;67640;55.784;49.138;2023-09-19T10:38:37;2.00;;;0.42;;
67712;SDS011;67640;55.784;49.138;2023-09-19T10:43:57;3.58;;;0.70;;
67712;SDS011;67640;55.784;49.138;2023-09-19T10:49:20;2.50;;;0.50;;
67712;SDS011;67640;55.784;49.138;2023-09-19T10:54:41;6.72;;;0.70;;
67712;SDS011;67640;55.784;49.138;2023-09-19T11:00:12;4.42;;;0.60;;
67712;SDS011;67640;55.784;49.138;2023-09-19T11:05:38;5.30;;;0.70;;
67712;SDS011;67640;55.784;49.138;2023-09-19T11:10:44;2.42;;;0.60;;
67712;SDS011;67640;55.784;49.138;2023-09-19T11:21:40;3.60;;;1.33;;
67712;SDS011;67640;55.784;49.138;2023-09-19T11:26:45;3.80;;;0.55;;
67712;SDS011;67640;55.784;49.138;2023-09-19T11:32:04;2.08;;;0.50;;
67712;SDS011;67640;55.784;49.138;2023-09-19T11:47:57;2.22;;;0.50;;
67712;SDS011;67640;55.784;49.138;2023-09-19T11:53:03;3.43;;;0.60;;
67712;SDS011;67640;55.784;49.138;2023-09-19T11:58:22;2.62;;;0.70;;
67712;SDS011;67640;55.784;49.138;2023-09-19T12:03:42;2.70;;;0.60;;
67712;SDS011;67640;55.784;49.138;2023-09-19T12:08:48;2.67;;;0.70;;
67712;SDS011;67640;55.784;49.138;2023-09-19T12:14:07;3.62;;;0.55;;
67712;SDS011;67640;55.784;49.138;2023-09-19T12:24:52;5.20;;;0.62;;
67712;SDS011;67640;55.784;49.138;2023-09-19T12:30:11;2.80;;;0.60;;
67712;SDS011;67640;55.784;49.138;2023-09-19T12:40:56;1.87;;;0.60;;
67712;SDS011;67640;55.784;49.138;2023-09-19T12:46:03;3.50;;;0.60;;
67712;SDS011;67640;55.784;49.138;2023-09-19T12:51:10;2.13;;;0.43;;
67712;SDS011;67640;55.784;49.138;2023-09-19T12:56:29;2.15;;;0.57;;
67712;SDS011;67640;55.784;49.138;2023-09-19T13:01:50;4.17;;;0.77;;
67712;SDS011;67640;55.784;49.138;2023-09-19T13:07:39;2.92;;;0.50;;
67712;SDS011;67640;55.784;49.138;2023-09-19T13:12:44;2.20;;;0.47;;
67712;SDS011;67640;55.784;49.138;2023-09-19T13:17:49;4.53;;;0.73;;
67712;SDS011;67640;55.784;49.138;2023-09-19T13:23:09;2.02;;;0.60;;
67712;SDS011;67640;55.784;49.138;2023-09-19T13:28:29;3.67;;;0.70;;
67712;SDS011;67640;55.784;49.138;2023-09-19T13:33:34;5.10;;;0.60;;
67712;SDS011;67640;55.784;49.138;2023-09-19T13:38:59;6.62;;;1.32;;
67712;SDS011;67640;55.784;49.138;2023-09-19T13:44:18;5.60;;;1.00;;
67712;SDS011;67640;55.784;49.138;2023-09-19T13:49:37;7.72;;;2.55;;
67712;SDS011;67640;55.784;49.138;2023-09-19T13:54:53;7.35;;;1.40;;
67712;SDS011;67640;55.784;49.138;2023-09-19T13:59:59;2.30;;;0.70;;
67712;SDS011;67640;55.784;49.138;2023-09-19T14:05:16;4.50;;;0.70;;
67712;SDS011;67640;55.784;49.138;2023-09-19T14:10:21;6.67;;;0.80;;
67712;SDS011;67640;55.784;49.138;2023-09-19T14:15:41;4.23;;;1.00;;
67712;SDS011;67640;55.784;49.138;2023-09-19T14:26:25;4.95;;;1.40;;
67712;SDS011;67640;55.784;49.138;2023-09-19T14:31:30;4.83;;;1.10;;
67712;SDS011;67640;55.784;49.138;2023-09-19T14:36:49;3.90;;;0.93;;
67712;SDS011;67640;55.784;49.138;2023-09-19T14:42:08;4.83;;;1.10;;
67712;SDS011;67640;55.784;49.138;2023-09-19T14:47:13;3.40;;;1.10;;
67712;SDS011;67640;55.784;49.138;2023-09-19T14:52:19;5.92;;;2.10;;
67712;SDS011;67640;55.784;49.138;2023-09-19T14:57:37;7.77;;;1.50;;
67712;SDS011;67640;55.784;49.138;2023-09-19T15:02:42;6.42;;;1.82;;
67712;SDS011;67640;55.784;49.138;2023-09-19T15:08:02;4.70;;;1.40;;
67712;SDS011;67640;55.784;49.138;2023-09-19T15:13:07;7.10;;;1.50;;
67712;SDS011;67640;55.784;49.138;2023-09-19T15:18:26;6.47;;;1.77;;
67712;SDS011;67640;55.784;49.138;2023-09-19T15:23:45;9.50;;;1.83;;
67712;SDS011;67640;55.784;49.138;2023-09-19T15:29:02;7.78;;;1.92;;
67712;SDS011;67640;55.784;49.138;2023-09-19T15:34:19;5.70;;;1.62;;
67712;SDS011;67640;55.784;49.138;2023-09-19T15:39:24;5.87;;;1.92;;
67712;SDS011;67640;55.784;49.138;2023-09-19T15:44:30;7.17;;;2.20;;
67712;SDS011;67640;55.784;49.138;2023-09-19T15:49:49;9.85;;;1.85;;
67712;SDS011;67640;55.784;49.138;2023-09-19T15:54:55;9.83;;;2.37;;
67712;SDS011;67640;55.784;49.138;2023-09-19T16:00:19;7.53;;;2.00;;
67712;SDS011;67640;55.784;49.138;2023-09-19T16:05:24;9.55;;;2.40;;
67712;SDS011;67640;55.784;49.138;2023-09-19T16:10:44;14.53;;;2.40;;
67712;SDS011;67640;55.784;49.138;2023-09-19T16:16:04;11.50;;;2.22;;
67712;SDS011;67640;55.784;49.138;2023-09-19T16:21:24;7.53;;;2.70;;
67712;SDS011;67640;55.784;49.138;2023-09-19T16:26:42;11.05;;;3.12;;
67712;SDS011;67640;55.784;49.138;2023-09-19T16:31:48;12.60;;;3.27;;
67712;SDS011;67640;55.784;49.138;2023-09-19T16:37:07;8.83;;;3.00;;
67712;SDS011;67640;55.784;49.138;2023-09-19T16:42:26;8.13;;;2.43;;
67712;SDS011;67640;55.784;49.138;2023-09-19T16:47:45;12.93;;;3.20;;
67712;SDS011;67640;55.784;49.138;2023-09-19T16:58:29;12.70;;;2.80;;
67712;SDS011;67640;55.784;49.138;2023-09-19T17:03:35;9.75;;;2.20;;
67712;SDS011;67640;55.784;49.138;2023-09-19T17:08:53;10.68;;;2.37;;
67712;SDS011;67640;55.784;49.138;2023-09-19T17:13:58;10.43;;;2.80;;
67712;SDS011;67640;55.784;49.138;2023-09-19T17:19:17;13.40;;;2.80;;
67712;SDS011;67640;55.784;49.138;2023-09-19T17:24:35;13.32;;;3.25;;
67712;SDS011;67640;55.784;49.138;2023-09-19T17:29:40;12.27;;;3.33;;
67712;SDS011;67640;55.784;49.138;2023-09-19T17:34:46;19.20;;;3.40;;
67712;SDS011;67640;55.784;49.138;2023-09-19T17:39:53;15.32;;;3.50;;
67712;SDS011;67640;55.784;49.138;2023-09-19T17:45:12;17.83;;;3.40;;
67712;SDS011;67640;55.784;49.138;2023-09-19T17:50:33;14.75;;;3.75;;
67712;SDS011;67640;55.784;49.138;2023-09-19T17:55:39;34.48;;;6.35;;
67712;SDS011;67640;55.784;49.138;2023-09-19T18:01:06;17.60;;;4.17;;
67712;SDS011;67640;55.784;49.138;2023-09-19T18:06:18;18.77;;;5.78;;
67712;SDS011;67640;55.784;49.138;2023-09-19T18:11:57;23.07;;;6.00;;
67712;SDS011;67640;55.784;49.138;2023-09-19T18:17:17;37.03;;;8.10;;
67712;SDS011;67640;55.784;49.138;2023-09-19T18:22:22;37.73;;;8.50;;
67712;SDS011;67640;55.784;49.138;2023-09-19T18:27:45;30.68;;;8.70;;
67712;SDS011;67640;55.784;49.138;2023-09-19T18:32:50;35.17;;;9.43;;
67712;SDS011;67640;55.784;49.138;2023-09-19T18:37:55;34.60;;;10.05;;
67712;SDS011;67640;55.784;49.138;2023-09-19T18:43:14;33.03;;;9.60;;
67712;SDS011;67640;55.784;49.138;2023-09-19T18:48:37;36.88;;;9.65;;
67712;SDS011;67640;55.784;49.138;2023-09-19T18:53:56;32.63;;;10.78;;
67712;SDS011;67640;55.784;49.138;2023-09-19T18:59:01;32.27;;;10.43;;
67712;SDS011;67640;55.784;49.138;2023-09-19T19:04:21;39.58;;;10.68;;
67712;SDS011;67640;55.784;49.138;2023-09-19T19:09:40;35.87;;;10.60;;
67712;SDS011;67640;55.784;49.138;2023-09-19T19:14:45;37.40;;;10.50;;
67712;SDS011;67640;55.784;49.138;2023-09-19T19:20:00;29.75;;;10.10;;
67712;SDS011;67640;55.784;49.138;2023-09-19T19:25:26;28.80;;;9.00;;
67712;SDS011;67640;55.784;49.138;2023-09-19T19:30:31;27.07;;;8.85;;
67712;SDS011;67640;55.784;49.138;2023-09-19T19:35:50;27.70;;;9.60;;
67712;SDS011;67640;55.784;49.138;2023-09-19T19:41:09;26.67;;;8.47;;
67712;SDS011;67640;55.784;49.138;2023-09-19T19:46:29;30.52;;;7.95;;
67712;SDS011;67640;55.784;49.138;2023-09-19T19:51:48;22.03;;;7.50;;
67712;SDS011;67640;55.784;49.138;2023-09-19T19:56:59;16.30;;;7.17;;
67712;SDS011;67640;55.784;49.138;2023-09-19T20:02:18;27.98;;;7.00;;
67712;SDS011;67640;55.784;49.138;2023-09-19T20:07:37;20.53;;;6.57;;
67712;SDS011;67640;55.784;49.138;2023-09-19T20:12:56;22.50;;;6.22;;
67712;SDS011;67640;55.784;49.138;2023-09-19T20:18:16;20.30;;;6.47;;
67712;SDS011;67640;55.784;49.138;2023-09-19T20:23:21;20.72;;;6.55;;
67712;SDS011;67640;55.784;49.138;2023-09-19T20:28:26;18.67;;;5.55;;
67712;SDS011;67640;55.784;49.138;2023-09-19T20:33:46;17.00;;;5.93;;
67712;SDS011;67640;55.784;49.138;2023-09-19T20:39:05;15.93;;;4.85;;
67712;SDS011;67640;55.784;49.138;2023-09-19T20:44:24;19.33;;;4.83;;
67712;SDS011;67640;55.784;49.138;2023-09-19T20:49:43;16.37;;;4.42;;
67712;SDS011;67640;55.784;49.138;2023-09-19T20:55:02;14.87;;;4.70;;
67712;SDS011;67640;55.784;49.138;2023-09-19T21:00:22;14.33;;;4.43;;
67712;SDS011;67640;55.784;49.138;2023-09-19T21:05:41;12.37;;;4.72;;
67712;SDS011;67640;55.784;49.138;2023-09-19T21:11:09;13.07;;;4.70;;
67712;SDS011;67640;55.784;49.138;2023-09-19T21:16:20;17.20;;;5.25;;
67712;SDS011;67640;55.784;49.138;2023-09-19T21:21:39;25.50;;;7.60;;
67712;SDS011;67640;55.784;49.138;2023-09-19T21:26:59;36.07;;;9.57;;
67712;SDS011;67640;55.784;49.138;2023-09-19T21:32:15;33.08;;;9.10;;
67712;SDS011;67640;55.784;49.138;2023-09-19T21:37:34;27.53;;;8.90;;
67712;SDS011;67640;55.784;49.138;2023-09-19T21:42:53;24.60;;;8.68;;
67712;SDS011;67640;55.784;49.138;2023-09-19T21:48:13;28.57;;;8.50;;
67712;SDS011;67640;55.784;49.138;2023-09-19T21:53:32;25.77;;;8.40;;
67712;SDS011;67640;55.784;49.138;2023-09-19T21:58:51;29.92;;;8.20;;
67712;SDS011;67640;55.784;49.138;2023-09-19T22:03:57;24.03;;;7.97;;
67712;SDS011;67640;55.784;49.138;2023-09-19T22:09:16;26.02;;;8.13;;
67712;SDS011;67640;55.784;49.138;2023-09-19T22:14:41;25.95;;;7.72;;
67712;SDS011;67640;55.784;49.138;2023-09-19T22:20:00;21.70;;;7.37;;
67712;SDS011;67640;55.784;49.138;2023-09-19T22:25:21;33.10;;;8.08;;
67712;SDS011;67640;55.784;49.138;2023-09-19T22:30:41;27.63;;;8.13;;
67712;SDS011;67640;55.784;49.138;2023-09-19T22:36:00;21.42;;;7.40;;
67712;SDS011;67640;55.784;49.138;2023-09-19T22:41:19;23.05;;;8.15;;
67712;SDS011;67640;55.784;49.138;2023-09-19T22:46:39;23.03;;;8.27;;
67712;SDS011;67640;55.784;49.138;2023-09-19T22:51:58;24.52;;;8.30;;
67712;SDS011;67640;55.784;49.138;2023-09-19T22:57:17;26.93;;;6.77;;
67712;SDS011;67640;55.784;49.138;2023-09-19T23:02:36;20.15;;;6.37;;
67712;SDS011;67640;55.784;49.138;2023-09-19T23:07:41;16.73;;;6.25;;
67712;SDS011;67640;55.784;49.138;2023-09-19T23:13:00;19.50;;;5.80;;
67712;SDS011;67640;55.784;49.138;2023-09-19T23:18:19;21.85;;;5.17;;
67712;SDS011;67640;55.784;49.138;2023-09-19T23:23:38;13.73;;;4.60;;
67712;SDS011;67640;55.784;49.138;2023-09-19T23:28:57;15.15;;;4.35;;
67712;SDS011;67640;55.784;49.138;2023-09-19T23:34:16;15.90;;;5.30;;
67712;SDS011;67640;55.784;49.138;2023-09-19T23:39:36;21.70;;;5.63;;
67712;SDS011;67640;55.784;49.138;2023-09-19T23:44:55;13.30;;;5.20;;
67712;SDS011;67640;55.784;49.138;2023-09-19T23:50:14;16.87;;;4.40;;
67712;SDS011;67640;55.784;49.138;2023-09-19T23:55:19;11.48;;;3.70;;
